Time;durP1;ratioP1;P1;durP2;ratioP2;P2;SDS_P1;SDS_P2;PMS_P1;PMS_P2;Temp;Humidity;BMP_temperature;BMP_pressure;BME280_temperature;BME280_humidity;BME280_pressure;Samples;Min_cycle;Max_cycle;Signal;HPM_P1;HPM_P2
2022/01/22 00:00:25;;;;;;;14.20;6.00;;;;;;;5.53;100.00;103294.94;5110106;28;20146;-51
2022/01/22 00:02:51;;;;;;;15.80;5.95;;;;;;;5.67;100.00;103324.94;5110091;28;20387;-50
2022/01/22 00:05:18;;;;;;;15.70;6.25;;;;;;;5.66;100.00;103320.56;5109956;28;20031;-50
2022/01/22 00:07:44;;;;;;;15.32;5.63;;;;;;;5.68;100.00;103305.81;5110008;28;20073;-49
2022/01/22 00:10:16;;;;;;;13.75;5.47;;;;;;;5.25;100.00;103232.34;5110145;28;20446;-53
2022/01/22 00:15:32;;;;;;;18.50;5.50;;;;;;;5.40;100.00;103249.31;5070421;28;20048;-48
2022/01/22 00:17:58;;;;;;;18.55;6.07;;;;;;;5.42;100.00;103244.13;5108405;28;20055;-53
2022/01/22 00:20:25;;;;;;;19.25;5.85;;;;;;;5.48;100.00;103246.91;5108336;28;20462;-50
2022/01/22 00:22:51;;;;;;;20.70;6.82;;;;;;;5.77;100.00;103295.59;5109812;28;20039;-50
2022/01/22 00:25:19;;;;;;;20.20;6.15;;;;;;;5.77;100.00;103286.88;5109540;28;20038;-51
2022/01/22 00:27:46;;;;;;;18.67;5.32;;;;;;;5.61;100.00;103264.66;5108444;28;20028;-50
2022/01/22 00:30:20;;;;;;;19.67;5.95;;;;;;;5.77;100.00;103295.59;5109679;28;20092;-51
2022/01/22 00:32:46;;;;;;;18.15;4.82;;;;;;;5.77;100.00;103297.31;5108094;28;20438;-51
2022/01/22 00:35:12;;;;;;;19.25;4.85;;;;;;;5.27;100.00;103199.31;5109586;28;20084;-49
2022/01/22 00:37:40;;;;;;;18.27;4.10;;;;;;;5.39;100.00;103221.44;5108121;28;20031;-50
2022/01/22 00:40:06;;;;;;;16.98;4.38;;;;;;;5.83;100.00;103284.41;5108131;28;20035;-52
2022/01/22 00:42:33;;;;;;;18.05;4.53;;;;;;;5.80;100.00;103286.94;5108353;28;20038;-55
2022/01/22 00:44:59;;;;;;;14.18;4.25;;;;;;;5.39;100.00;103204.88;5125860;28;20031;-49
2022/01/22 00:47:24;;;;;;;19.17;5.20;;;;;;;5.82;100.00;103283.53;5126858;28;20039;-49
2022/01/22 00:49:49;;;;;;;16.13;4.03;;;;;;;5.68;100.00;103261.38;5128693;28;20397;-53
2022/01/22 00:52:15;;;;;;;17.88;4.35;;;;;;;5.80;100.00;103284.34;5129775;27;20416;-51
2022/01/22 00:54:40;;;;;;;18.02;4.50;;;;;;;5.34;100.00;103202.13;5129382;28;20402;-50
2022/01/22 00:57:06;;;;;;;14.05;3.50;;;;;;;5.36;100.00;103207.41;5128339;28;20297;-48
2022/01/22 00:59:31;;;;;;;16.17;3.38;;;;;;;5.36;100.00;103202.19;5129506;27;20023;-51
2022/01/22 01:01:56;;;;;;;17.98;3.88;;;;;;;5.80;100.00;103289.56;5128255;28;20052;-51
2022/01/22 01:04:22;;;;;;;16.80;3.30;;;;;;;5.81;100.00;103289.59;5128499;28;20467;-48
2022/01/22 01:06:47;;;;;;;23.55;3.40;;;;;;;5.70;100.00;103257.06;5129626;28;20036;-49
2022/01/22 01:09:13;;;;;;;12.48;3.00;;;;;;;5.84;100.00;103284.44;5116231;27;20040;-50
2022/01/22 01:11:45;;;;;;;17.85;2.65;;;;;;;5.41;100.00;103214.50;5097180;28;20390;-51
2022/01/22 01:14:16;;;;;;;15.30;3.40;;;;;;;5.88;100.00;103293.28;5115362;28;20050;-49
2022/01/22 01:35:21;;;;;;;12.63;3.72;;;;;;;5.91;100.00;103264.63;5115732;28;20039;-49
2022/01/22 01:37:46;;;;;;;9.20;3.30;;;;;;;6.02;100.00;103279.72;5115158;28;20483;-50
2022/01/22 01:40:15;;;;;;;10.13;3.45;;;;;;;5.89;100.00;103261.97;5115167;28;20043;-50
2022/01/22 01:42:50;;;;;;;14.07;3.53;;;;;;;5.95;100.00;103275.22;5115115;28;20372;-49
2022/01/22 01:45:16;;;;;;;16.42;3.63;;;;;;;5.61;100.00;103210.69;5114844;28;20030;-51
2022/01/22 01:47:44;;;;;;;13.75;3.28;;;;;;;6.00;100.00;103283.16;5113664;28;20123;-50
2022/01/22 01:50:09;;;;;;;10.70;3.25;;;;;;;5.64;100.00;103221.22;5114861;28;20036;-51
2022/01/22 01:52:49;;;;;;;13.98;3.22;;;;;;;6.00;100.00;103277.91;5115013;28;20588;-48
2022/01/22 01:55:34;;;;;;;17.25;3.92;;;;;;;6.04;100.00;103285.00;5114753;28;20032;-48
2022/01/22 01:58:00;;;;;;;14.32;3.10;;;;;;;6.03;100.00;103285.84;5113604;28;20067;-51
2022/01/22 02:00:26;;;;;;;10.30;3.05;;;;;;;6.01;100.00;103285.78;5113342;28;20066;-50
2022/01/22 02:02:53;;;;;;;9.75;3.40;;;;;;;6.06;100.00;103286.81;5114869;28;20042;-53
2022/01/22 02:05:21;;;;;;;9.55;3.28;;;;;;;6.06;100.00;103289.44;5114573;27;20067;-50
2022/01/22 02:07:46;;;;;;;15.15;3.10;;;;;;;5.95;100.00;103263.84;5114589;28;20426;-50
2022/01/22 02:10:18;;;;;;;15.75;3.80;;;;;;;5.71;100.00;103229.22;5114450;28;20023;-53
2022/01/22 02:23:42;;;;;;;19.02;3.20;;;;;;;6.08;100.00;103290.34;5114574;28;20513;-47
2022/01/22 02:26:09;;;;;;;9.73;2.63;;;;;;;6.09;100.00;103286.00;5114218;28;20039;-47
2022/01/22 02:28:35;;;;;;;11.10;2.85;;;;;;;5.69;100.00;103216.13;5114311;28;20057;-51
2022/01/22 02:31:15;;;;;;;16.08;2.75;;;;;;;5.94;100.00;103247.28;5113103;28;20043;-48
2022/01/22 02:33:50;;;;;;;15.03;3.10;;;;;;;6.09;100.00;103288.63;5113869;28;20065;-54
2022/01/22 02:41:21;;;;;;;;;;;;;;;6.10;100.00;103277.31;5113201;28;20065;-54
2022/01/22 02:43:47;;;;;;;8.70;2.33;;;;;;;6.12;100.00;103280.84;5112665;28;20251;-50
2022/01/22 02:46:18;;;;;;;12.15;2.83;;;;;;;6.11;100.00;103281.69;5113657;28;20525;-47
2022/01/22 02:48:43;;;;;;;11.15;3.00;;;;;;;6.11;100.00;103281.69;5113991;28;20087;-50
2022/01/22 02:51:09;;;;;;;14.82;3.28;;;;;;;6.12;100.00;103289.56;5113781;28;20429;-50
2022/01/22 02:53:34;;;;;;;13.65;3.95;;;;;;;6.12;100.00;103279.13;5113548;28;20036;-50
2022/01/22 02:56:00;;;;;;;20.52;3.35;;;;;;;5.68;100.00;103209.13;5112188;28;20050;-52
2022/01/22 02:58:26;;;;;;;6.72;2.58;;;;;;;6.12;100.00;103278.22;5113310;28;20040;-50
2022/01/22 03:00:52;;;;;;;17.00;3.33;;;;;;;6.10;100.00;103279.94;5113733;28;20119;-51
2022/01/22 03:03:17;;;;;;;12.05;3.25;;;;;;;6.11;100.00;103281.69;5113701;28;20721;-50
2022/01/22 03:05:42;;;;;;;17.98;3.35;;;;;;;6.10;100.00;103286.03;5113671;28;20035;-46
2022/01/22 03:08:10;;;;;;;20.70;3.45;;;;;;;6.10;100.00;103282.53;5112069;28;20042;-50
2022/01/22 03:10:36;;;;;;;20.60;3.38;;;;;;;6.14;100.00;103284.38;5112275;28;20036;-48
2022/01/22 03:13:19;;;;;;;21.92;4.25;;;;;;;6.11;100.00;103272.09;5113207;28;20024;-51
2022/01/22 03:18:19;;;;;;;12.27;3.42;;;;;;;6.14;100.00;103285.25;5113044;28;20032;-49
2022/01/22 03:29:04;;;;;;;15.93;2.65;;;;;;;6.26;100.00;103289.00;5111832;28;20108;-49
2022/01/22 03:31:30;;;;;;;15.25;2.30;;;;;;;6.28;100.00;103300.38;5111778;28;20490;-50
2022/01/22 03:33:55;;;;;;;14.82;2.70;;;;;;;5.93;100.00;103227.19;5112742;28;20031;-51
2022/01/22 03:36:22;;;;;;;15.82;2.70;;;;;;;5.90;100.00;103232.34;5111342;28;20027;-49
2022/01/22 03:38:48;;;;;;;13.63;2.28;;;;;;;6.30;100.00;103285.63;5112831;28;20035;-52
2022/01/22 03:41:13;;;;;;;15.57;2.85;;;;;;;6.29;100.00;103287.38;5112812;28;20478;-52
2022/01/22 03:43:39;;;;;;;8.48;2.20;;;;;;;6.29;100.00;103289.97;5113093;28;20044;-49
2022/01/22 03:46:04;;;;;;;14.27;2.80;;;;;;;6.29;100.00;103292.59;5112716;28;20039;-50
2022/01/22 03:48:30;;;;;;;12.60;2.50;;;;;;;6.30;100.00;103285.63;5112778;28;20482;-50
2022/01/22 03:50:55;;;;;;;15.07;2.78;;;;;;;6.28;100.00;103287.31;5112909;28;20532;-49
2022/01/22 03:53:21;;;;;;;8.48;2.83;;;;;;;6.27;100.00;103286.44;5112883;28;20483;-50
2022/01/22 03:56:05;;;;;;;13.77;2.78;;;;;;;6.27;100.00;103294.31;5112371;28;20085;-50
2022/01/22 03:58:33;;;;;;;7.80;2.20;;;;;;;6.28;100.00;103301.28;5111605;28;20027;-49
2022/01/22 04:03:53;;;;;;;12.43;1.95;;;;;;;5.76;100.00;103210.19;5112731;28;20066;-51
2022/01/22 04:09:06;;;;;;;9.60;2.33;;;;;;;6.22;100.00;103286.31;5112226;28;20036;-48
2022/01/22 04:11:35;;;;;;;10.07;1.92;;;;;;;6.27;100.00;103301.25;5112207;28;20031;-49
2022/01/22 04:14:03;;;;;;;14.90;2.58;;;;;;;6.27;100.00;103311.72;5094450;28;20114;-50
2022/01/22 04:16:30;;;;;;;11.50;2.60;;;;;;;6.15;100.00;103275.69;5111146;28;20028;-50
2022/01/22 04:27:13;;;;;;;12.68;2.70;;;;;;;5.90;100.00;103244.53;5112674;28;20046;-50
2022/01/22 04:29:40;;;;;;;13.27;2.40;;;;;;;6.26;100.00;103299.47;5112302;28;20437;-51
2022/01/22 04:32:06;;;;;;;13.95;3.10;;;;;;;6.26;100.00;103302.09;5112334;28;20043;-49
2022/01/22 04:34:31;;;;;;;13.13;3.00;;;;;;;6.26;100.00;103300.38;5112737;28;20063;-47
2022/01/22 04:36:57;;;;;;;14.27;3.10;;;;;;;5.91;100.00;103243.69;5111098;28;20474;-51
2022/01/22 04:39:24;;;;;;;15.73;2.90;;;;;;;6.28;100.00;103305.63;5112311;28;20132;-51
2022/01/22 04:41:52;;;;;;;14.98;3.53;;;;;;;6.13;100.00;103272.13;5110989;28;20141;-49
2022/01/22 04:44:18;;;;;;;8.82;2.47;;;;;;;5.95;100.00;103246.44;5115425;28;20109;-48
2022/01/22 04:55:02;;;;;;;13.10;2.92;;;;;;;6.20;100.00;103271.44;5116083;28;20050;-48
2022/01/22 04:57:07;;;;;;;14.88;2.90;;;;;;;5.85;100.00;103218.31;5110048;28;20056;-47
2022/01/22 04:59:33;;;;;;;10.00;2.55;;;;;;;6.26;100.00;103292.53;5116012;28;20113;-49
2022/01/22 05:01:58;;;;;;;12.40;2.45;;;;;;;6.27;100.00;103288.19;5114685;28;20055;-48
2022/01/22 05:04:24;;;;;;;10.13;2.05;;;;;;;5.99;100.00;103242.16;5115789;28;20035;-49
2022/01/22 05:06:49;;;;;;;8.38;2.38;;;;;;;6.27;100.00;103288.19;5115749;28;20036;-48
2022/01/22 05:09:15;;;;;;;10.38;2.22;;;;;;;6.26;100.00;103292.53;5115775;28;20478;-49
2022/01/22 05:11:40;;;;;;;7.65;1.67;;;;;;;5.86;100.00;103216.56;5115684;28;20031;-53
2022/01/22 05:14:05;;;;;;;12.27;2.08;;;;;;;5.82;100.00;103210.34;5114490;28;20031;-49
2022/01/22 05:16:31;;;;;;;7.35;1.95;;;;;;;6.25;100.00;103284.66;5115787;28;20031;-52
2022/01/22 05:19:02;;;;;;;7.05;2.00;;;;;;;6.16;100.00;103270.47;5114470;28;20034;-51
2022/01/22 05:21:30;;;;;;;11.90;2.08;;;;;;;6.27;100.00;103296.91;5115518;28;20035;-51
2022/01/22 05:23:59;;;;;;;8.43;2.03;;;;;;;6.30;100.00;103293.47;5115429;27;20356;-50
2022/01/22 05:27:11;;;;;;;7.90;1.80;;;;;;;6.30;100.00;103289.16;5115256;28;20044;-50
2022/01/22 05:37:01;;;;;;;12.15;2.40;;;;;;;6.31;100.00;103279.53;5114974;28;20459;-49
2022/01/22 05:39:29;;;;;;;12.02;2.40;;;;;;;6.35;100.00;103302.31;5114288;28;20032;-49
2022/01/22 05:41:55;;;;;;;10.85;2.20;;;;;;;6.35;100.00;103290.13;5114998;28;20096;-49
2022/01/22 05:44:20;;;;;;;6.97;2.25;;;;;;;6.32;100.00;103290.06;5113787;28;20035;-50
2022/01/22 05:46:46;;;;;;;12.57;2.13;;;;;;;6.35;100.00;103297.09;5114940;28;20456;-47
2022/01/22 05:49:12;;;;;;;11.10;2.05;;;;;;;6.33;100.00;103293.56;5114792;28;20077;-50
2022/01/22 05:51:40;;;;;;;7.22;2.05;;;;;;;6.32;100.00;103297.91;5114788;28;20031;-51
2022/01/22 05:59:39;;;;;;;8.70;2.35;;;;;;;6.30;100.00;103296.09;5115091;28;19973;-49
2022/01/22 06:02:07;;;;;;;10.30;2.50;;;;;;;5.93;100.00;103240.28;5113885;28;20394;-50
2022/01/22 06:04:32;;;;;;;15.57;2.80;;;;;;;6.21;100.00;103297.66;5113680;28;20028;-51
2022/01/22 06:06:58;;;;;;;11.57;2.30;;;;;;;6.30;100.00;103314.41;5113502;28;20114;-49
2022/01/22 06:09:25;;;;;;;10.38;2.90;;;;;;;6.28;100.00;103318.69;5113375;28;20035;-50
2022/01/22 06:11:55;;;;;;;11.00;2.75;;;;;;;6.28;100.00;103309.13;5114946;28;20036;-53
2022/01/22 06:14:20;;;;;;;14.98;2.92;;;;;;;5.88;100.00;103239.28;5114405;28;20039;-48
2022/01/22 06:16:46;;;;;;;9.27;2.60;;;;;;;6.29;100.00;103307.41;5096077;28;20032;-51
2022/01/22 06:19:11;;;;;;;11.05;3.33;;;;;;;6.26;100.00;103304.72;5114388;28;20043;-50
2022/01/22 06:21:36;;;;;;;10.02;2.60;;;;;;;6.30;100.00;103309.19;5113279;28;20477;-50
2022/01/22 06:24:02;;;;;;;9.50;2.92;;;;;;;6.30;100.00;103312.69;5114335;28;20076;-48
2022/01/22 06:26:27;;;;;;;8.98;2.58;;;;;;;6.29;100.00;103310.91;5114401;28;20482;-53
2022/01/22 06:28:53;;;;;;;8.40;2.53;;;;;;;5.85;100.00;103231.38;5114106;28;20071;-53
2022/01/22 06:31:18;;;;;;;9.85;2.92;;;;;;;5.97;100.00;103255.19;5113021;28;20189;-51
2022/01/22 06:33:43;;;;;;;14.30;2.70;;;;;;;5.94;100.00;103241.16;5114232;28;20187;-52
2022/01/22 06:36:09;;;;;;;14.05;2.88;;;;;;;6.28;100.00;103322.19;5113845;28;20078;-47
2022/01/22 06:38:34;;;;;;;8.48;3.10;;;;;;;5.99;100.00;103261.34;5114425;28;20039;-47
2022/01/22 06:43:44;;;;;;;14.13;2.97;;;;;;;6.32;100.00;103321.44;5114476;28;20047;-49
2022/01/22 06:46:09;;;;;;;9.35;3.38;;;;;;;6.32;100.00;103331.91;5112782;28;20055;-49
2022/01/22 06:48:35;;;;;;;10.75;3.83;;;;;;;6.19;100.00;103315.00;5114191;28;20031;-50
2022/01/22 06:51:01;;;;;;;23.08;8.43;;;;;;;6.31;100.00;103331.84;5113892;28;20063;-54
2022/01/22 06:53:26;;;;;;;16.95;5.57;;;;;;;6.33;100.00;103338.03;5113814;28;20052;-52
2022/01/22 06:56:01;;;;;;;11.48;3.95;;;;;;;6.30;100.00;103327.50;5113406;28;20134;-55
2022/01/22 06:58:27;;;;;;;15.75;3.88;;;;;;;6.15;100.00;103300.13;5113988;27;20308;-51
2022/01/22 07:00:53;;;;;;;14.98;4.13;;;;;;;6.33;100.00;103352.00;5113601;28;20028;-51
2022/01/22 07:03:18;;;;;;;15.50;4.10;;;;;;;6.33;100.00;103344.16;5113682;28;20113;-50
2022/01/22 07:05:44;;;;;;;10.40;3.50;;;;;;;6.33;100.00;103340.66;5113357;28;20116;-49
2022/01/22 07:08:09;;;;;;;11.57;3.90;;;;;;;6.32;100.00;103351.94;5113298;28;20043;-49
2022/01/22 07:10:34;;;;;;;12.15;3.70;;;;;;;6.32;100.00;103337.13;5112012;28;20093;-49
2022/01/22 07:13:00;;;;;;;14.20;4.90;;;;;;;6.33;100.00;103338.03;5112398;28;20037;-48
2022/01/22 07:15:25;;;;;;;13.38;4.95;;;;;;;6.32;100.00;103337.13;5113422;28;20031;-52
2022/01/22 07:17:51;;;;;;;20.40;7.30;;;;;;;6.29;100.00;103338.78;5113383;28;20061;-48
2022/01/22 07:20:25;;;;;;;13.70;5.15;;;;;;;6.33;100.00;103344.16;5113158;28;20057;-50
2022/01/22 07:23:00;;;;;;;14.93;5.13;;;;;;;6.28;100.00;103326.53;5111863;28;20038;-50
2022/01/22 07:25:26;;;;;;;13.07;3.95;;;;;;;6.35;100.00;103338.94;5113097;28;20034;-51
2022/01/22 07:27:52;;;;;;;12.85;4.05;;;;;;;6.36;100.00;103333.75;5112035;28;20035;-50
2022/01/22 07:30:17;;;;;;;14.90;4.20;;;;;;;6.34;100.00;103330.19;5111726;28;20036;-50
2022/01/22 07:32:44;;;;;;;11.10;4.38;;;;;;;6.37;100.00;103332.91;5112728;28;20390;-47
2022/01/22 07:35:11;;;;;;;12.90;4.20;;;;;;;6.17;100.00;103290.56;5111293;28;20371;-51
2022/01/22 07:37:36;;;;;;;13.20;3.90;;;;;;;6.07;100.00;103266.78;5111156;28;20069;-47
2022/01/22 07:40:07;;;;;;;8.88;4.15;;;;;;;6.48;100.00;103333.19;5113095;28;20120;-46
2022/01/22 07:42:33;;;;;;;11.88;3.25;;;;;;;6.47;100.00;103345.38;5111700;28;20356;-50
2022/01/22 07:44:59;;;;;;;9.38;4.32;;;;;;;6.11;100.00;103261.66;5112671;28;20057;-47
2022/01/22 07:47:24;;;;;;;12.40;3.95;;;;;;;6.55;100.00;103335.06;5111765;28;20035;-52
2022/01/22 07:49:50;;;;;;;8.07;4.30;;;;;;;6.54;100.00;103328.06;5111930;28;20035;-51
2022/01/22 07:52:15;;;;;;;15.27;4.75;;;;;;;6.54;100.00;103331.56;5112861;28;20066;-55
2022/01/22 07:54:40;;;;;;;15.18;4.88;;;;;;;6.53;100.00;103328.94;5111388;28;20071;-54
2022/01/22 07:57:06;;;;;;;13.02;4.63;;;;;;;6.49;100.00;103332.31;5111385;28;20075;-48
2022/01/22 07:59:33;;;;;;;9.35;4.78;;;;;;;6.46;100.00;103321.75;5112983;28;20068;-52
2022/01/22 08:01:59;;;;;;;17.77;4.22;;;;;;;6.36;100.00;103304.09;5112613;28;20036;-52
2022/01/22 08:04:24;;;;;;;9.30;4.93;;;;;;;6.49;100.00;103319.22;5112777;28;20036;-50
2022/01/22 08:06:52;;;;;;;13.90;4.80;;;;;;;6.43;100.00;103306.00;5111254;28;20031;-52
2022/01/22 08:09:17;;;;;;;15.05;5.63;;;;;;;6.13;100.00;103252.09;5112788;28;20036;-53
2022/01/22 08:11:42;;;;;;;14.27;5.05;;;;;;;6.06;100.00;103228.41;5112690;28;20495;-53
2022/01/22 08:14:09;;;;;;;13.65;4.57;;;;;;;6.57;100.00;103322.91;5112384;28;20039;-52
2022/01/22 08:16:35;;;;;;;9.07;4.07;;;;;;;6.58;100.00;103319.44;5112728;28;20039;-49
2022/01/22 08:19:00;;;;;;;12.23;4.53;;;;;;;6.50;100.00;103316.66;5115130;28;20551;-49
2022/01/22 08:21:26;;;;;;;11.05;4.30;;;;;;;6.26;100.00;103266.38;5116644;28;20031;-49
2022/01/22 08:23:51;;;;;;;11.85;4.90;;;;;;;6.18;100.00;103255.72;5116428;28;20066;-52
2022/01/22 08:26:20;;;;;;;9.77;5.10;;;;;;;6.21;100.00;103253.19;5116672;28;20035;-51
2022/01/22 08:29:04;;;;;;;10.73;4.68;;;;;;;6.64;100.00;103322.19;5116383;28;20475;-49
2022/01/22 08:36:41;;;;;;;10.32;4.72;;;;;;;6.27;100.00;103249.84;5116128;28;20503;-50
2022/01/22 08:39:06;;;;;;;16.95;5.95;;;;;;;6.73;100.00;103341.63;5116849;28;20031;-51
2022/01/22 08:41:32;;;;;;;13.50;5.45;;;;;;;6.59;100.00;103311.66;5116362;28;20383;-52
2022/01/22 08:43:59;;;;;;;11.85;5.00;;;;;;;6.76;100.00;103340.81;5116317;28;20114;-49
2022/01/22 08:46:25;;;;;;;10.55;4.35;;;;;;;6.77;100.00;103358.31;5116036;28;20084;-47
2022/01/22 08:48:50;;;;;;;12.05;5.10;;;;;;;6.76;100.00;103343.44;5116352;28;20036;-51
2022/01/22 08:51:16;;;;;;;16.95;5.10;;;;;;;6.75;100.00;103345.16;5115054;28;20036;-52
2022/01/22 08:53:41;;;;;;;14.38;5.13;;;;;;;6.77;100.00;103346.06;5116157;28;20027;-50
2022/01/22 08:56:09;;;;;;;16.10;5.18;;;;;;;6.67;100.00;103341.47;5115845;27;20153;-52
2022/01/22 08:58:35;;;;;;;13.43;4.78;;;;;;;6.78;100.00;103362.66;5115981;28;20090;-53
2022/01/22 09:01:00;;;;;;;15.10;4.97;;;;;;;6.81;100.00;103354.88;5115682;28;20036;-50
2022/01/22 09:03:26;;;;;;;8.25;4.40;;;;;;;6.68;100.00;103335.38;5115776;28;20036;-50
2022/01/22 09:05:52;;;;;;;10.65;4.60;;;;;;;6.76;100.00;103354.78;5115885;28;20027;-50
2022/01/22 09:08:18;;;;;;;15.32;5.15;;;;;;;6.84;100.00;103354.06;5114703;28;20023;-52
2022/01/22 09:10:43;;;;;;;15.48;5.60;;;;;;;6.82;100.00;103355.78;5115863;28;20035;-51
2022/01/22 09:13:10;;;;;;;10.98;4.95;;;;;;;6.79;100.00;103364.44;5115672;28;20043;-53
2022/01/22 09:15:36;;;;;;;12.73;5.80;;;;;;;6.49;100.00;103291.31;5115651;28;20032;-53
2022/01/22 09:18:02;;;;;;;13.00;5.45;;;;;;;6.85;100.00;103363.69;5115516;28;20409;-53
2022/01/22 09:23:03;;;;;;;12.25;4.65;;;;;;;6.48;100.00;103307.88;5115265;28;20040;-50
2022/01/22 09:25:29;;;;;;;8.82;4.32;;;;;;;6.75;100.00;103363.47;5115471;28;20035;-53
2022/01/22 09:27:54;;;;;;;15.15;4.38;;;;;;;6.87;100.00;103369.84;5114151;28;20081;-49
2022/01/22 09:30:20;;;;;;;9.57;4.55;;;;;;;6.90;100.00;103380.38;5114708;28;20077;-50
2022/01/22 09:32:45;;;;;;;10.23;4.60;;;;;;;6.91;100.00;103366.47;5115198;28;20039;-49
2022/01/22 09:35:11;;;;;;;8.88;4.60;;;;;;;6.98;100.00;103403.28;5115435;28;20092;-47
2022/01/22 09:37:36;;;;;;;10.00;4.72;;;;;;;7.01;100.00;103397.22;5115236;28;20080;-48
2022/01/22 09:40:02;;;;;;;10.00;5.13;;;;;;;6.57;100.00;103313.31;5115206;28;20137;-50
2022/01/22 09:42:27;;;;;;;11.48;4.88;;;;;;;7.04;100.00;103399.91;5094838;28;20020;-48
2022/01/22 09:44:53;;;;;;;11.95;5.60;;;;;;;7.07;100.00;103394.75;5094171;28;20040;-50
2022/01/22 09:47:20;;;;;;;11.63;5.50;;;;;;;6.69;100.00;103333.66;5094885;28;20024;-51
2022/01/22 09:49:46;;;;;;;11.23;5.60;;;;;;;7.10;100.00;103406.19;5094753;28;20052;-48
2022/01/22 09:52:12;;;;;;;8.93;4.75;;;;;;;6.06;100.00;103221.44;5094780;28;20453;-51
2022/01/22 09:54:38;;;;;;;12.02;4.70;;;;;;;7.13;100.00;103410.59;5093208;28;20032;-50
2022/01/22 09:57:04;;;;;;;12.07;5.45;;;;;;;7.13;100.00;103411.47;5092399;28;20048;-46
2022/01/22 09:59:30;;;;;;;14.00;5.30;;;;;;;7.18;100.00;103394.13;5094175;28;20056;-51
2022/01/22 10:02:14;;;;;;;12.82;5.65;;;;;;;7.23;100.00;103397.75;5092719;28;20115;-52
2022/01/22 10:04:41;;;;;;;13.32;5.25;;;;;;;7.09;100.00;103365.13;5094298;28;20035;-47
2022/01/22 10:07:18;;;;;;;10.55;5.22;;;;;;;7.32;100.00;103394.44;5093051;28;20032;-50
2022/01/22 10:10:00;;;;;;;15.20;6.18;;;;;;;7.38;100.00;103419.03;5092799;28;20391;-53
2022/01/22 10:12:27;;;;;;;11.30;5.70;;;;;;;7.05;100.00;103331.88;5093923;28;20030;-48
2022/01/22 10:15:11;;;;;;;12.45;5.47;;;;;;;7.48;100.00;103420.13;5076323;28;20123;-48
2022/01/22 10:17:48;;;;;;;11.80;5.75;;;;;;;7.07;100.00;103337.13;5093941;28;20032;-50
2022/01/22 10:20:27;;;;;;;10.98;6.75;;;;;;;7.50;100.00;103417.53;5093776;28;20368;-50
2022/01/22 10:22:55;;;;;;;13.25;6.22;;;;;;;7.46;100.00;103411.34;5094115;28;20044;-50
2022/01/22 10:25:28;;;;;;;10.68;6.13;;;;;;;7.55;100.00;103427.28;5093782;28;20111;-52
2022/01/22 10:28:02;;;;;;;13.85;6.57;;;;;;;7.15;100.00;103360.00;5094010;28;20463;-48
2022/01/22 10:30:36;;;;;;;17.25;7.07;;;;;;;7.49;100.00;103426.25;5093715;28;20028;-51
2022/01/22 10:33:23;;;;;;;16.02;6.90;;;;;;;7.08;100.00;103350.28;5093994;28;20120;-52
2022/01/22 10:35:49;;;;;;;13.50;6.47;;;;;;;7.52;100.00;103413.22;5093792;28;20047;-53
2022/01/22 10:38:17;;;;;;;14.05;5.85;;;;;;;7.52;100.00;103405.34;5092344;28;20391;-52
2022/01/22 10:40:47;;;;;;;12.20;6.00;;;;;;;7.56;100.00;103418.53;5074769;28;20392;-50
2022/01/22 10:43:22;;;;;;;14.48;6.78;;;;;;;7.54;100.00;103422.88;5093055;28;20036;-50
2022/01/22 10:46:08;;;;;;;12.05;7.05;;;;;;;7.55;100.00;103416.78;5093467;28;20040;-48
2022/01/22 10:48:42;;;;;;;13.15;6.97;;;;;;;7.60;100.00;103424.72;5092171;28;20031;-49
2022/01/22 10:51:15;;;;;;;14.00;7.05;;;;;;;7.58;100.00;103426.44;5093153;28;20036;-48
2022/01/22 10:53:47;;;;;;;14.77;6.78;;;;;;;7.62;100.00;103416.03;5092871;28;20040;-50
2022/01/22 10:56:23;;;;;;;10.38;6.38;;;;;;;7.23;100.00;103349.72;5091914;28;20072;-51
2022/01/22 11:02:10;;;;;;;10.50;6.78;;;;;;;7.61;100.00;103439.63;5091047;28;20051;-49
2022/01/22 11:04:36;;;;;;;16.15;7.88;;;;;;;7.54;100.00;103432.47;5092979;28;20028;-46
2022/01/22 11:07:09;;;;;;;15.68;7.93;;;;;;;7.38;100.00;103403.31;5093025;28;20024;-50
2022/01/22 11:09:35;;;;;;;13.75;7.60;;;;;;;7.56;100.00;103412.44;5092472;28;20495;-48
2022/01/22 11:12:03;;;;;;;14.93;8.07;;;;;;;7.59;100.00;103412.50;5092925;28;20053;-50
2022/01/22 11:14:31;;;;;;;12.68;7.93;;;;;;;7.39;100.00;103388.47;5091555;28;20021;-54
2022/01/22 11:16:57;;;;;;;15.68;9.18;;;;;;;7.56;100.00;103417.69;5092416;28;20032;-51
2022/01/22 11:19:31;;;;;;;16.88;9.57;;;;;;;7.23;100.00;103366.31;5091448;28;20024;-51
2022/01/22 11:22:00;;;;;;;14.65;8.45;;;;;;;7.58;100.00;103434.31;5092778;28;20471;-50
2022/01/22 11:24:26;;;;;;;13.82;8.20;;;;;;;7.56;100.00;103436.88;5092461;28;20043;-50
2022/01/22 11:27:00;;;;;;;14.02;8.75;;;;;;;7.30;100.00;103375.16;5091298;28;20032;-50
2022/01/22 11:29:33;;;;;;;20.20;8.52;;;;;;;7.60;100.00;103425.63;5092751;28;20070;-51
2022/01/22 11:32:01;;;;;;;11.20;7.32;;;;;;;7.14;100.00;103362.63;5091599;28;20028;-50
2022/01/22 11:34:31;;;;;;;17.90;6.95;;;;;;;7.47;100.00;103436.72;5092693;28;20081;-51
2022/01/22 11:37:06;;;;;;;14.98;8.40;;;;;;;7.48;100.00;103442.81;5091186;28;20063;-52
2022/01/22 11:39:33;;;;;;;15.85;7.70;;;;;;;7.45;100.00;103438.38;5092434;28;20020;-51
2022/01/22 11:41:59;;;;;;;18.55;7.68;;;;;;;7.04;100.00;103361.50;5091193;28;20483;-50
2022/01/22 11:44:46;;;;;;;20.05;9.05;;;;;;;7.46;100.00;103434.03;5074500;28;20421;-50
2022/01/22 11:47:14;;;;;;;16.92;8.35;;;;;;;7.46;100.00;103432.31;5092527;28;20070;-50
2022/01/22 11:49:40;;;;;;;13.93;9.48;;;;;;;7.41;100.00;103425.19;5092525;28;20483;-51
2022/01/22 11:52:11;;;;;;;13.07;9.75;;;;;;;7.38;100.00;103439.13;5092337;28;20066;-50
2022/01/22 11:54:48;;;;;;;;;;;;;;;7.37;100.00;103429.50;5092932;28;20386;-49
2022/01/22 11:57:15;;;;;;;18.90;9.98;;;;;;;7.39;100.00;103427.78;5092194;28;19995;-52
2022/01/22 11:59:43;;;;;;;18.35;10.98;;;;;;;7.49;100.00;103426.25;5074310;28;20089;-53
2022/01/22 12:02:15;;;;;;;16.38;12.63;;;;;;;7.48;100.00;103419.22;5092299;28;20085;-50
2022/01/22 12:04:40;;;;;;;19.58;12.32;;;;;;;7.56;100.00;103438.66;5092270;28;20024;-50
2022/01/22 12:07:08;;;;;;;21.77;11.98;;;;;;;7.56;100.00;103426.41;5092368;28;20166;-47
2022/01/22 12:10:18;;;;;;;24.27;12.02;;;;;;;7.39;100.00;103401.56;5092047;28;20436;-50
2022/01/22 12:15:30;;;;;;;15.90;10.50;;;;;;;7.53;100.00;103418.47;5092363;28;20109;-51
2022/01/22 12:18:03;;;;;;;19.98;11.88;;;;;;;7.14;100.00;103355.66;5091952;28;20040;-53
2022/01/22 12:23:04;;;;;;;16.38;11.30;;;;;;;7.28;100.00;103375.16;5092118;28;20040;-52
2022/01/22 12:25:29;;;;;;;15.95;11.25;;;;;;;7.52;100.00;103421.97;5092344;28;20043;-50
2022/01/22 12:27:55;;;;;;;18.98;11.95;;;;;;;7.15;100.00;103360.00;5092260;28;20032;-54
2022/01/22 12:30:42;;;;;;;18.52;12.93;;;;;;;7.44;100.00;103414.78;5092289;28;20036;-50
2022/01/22 12:33:12;;;;;;;18.05;13.80;;;;;;;7.13;100.00;103387.91;5092011;28;20126;-50
2022/01/22 12:35:46;;;;;;;19.73;14.30;;;;;;;7.27;100.00;103401.31;5092078;28;20471;-50
2022/01/22 12:38:22;;;;;;;20.00;13.98;;;;;;;7.40;100.00;103434.78;5090996;28;20027;-53
2022/01/22 12:40:53;;;;;;;20.27;14.68;;;;;;;7.47;100.00;103425.34;5091969;28;20475;-55
2022/01/22 12:43:27;;;;;;;20.33;14.15;;;;;;;7.39;100.00;103425.16;5092128;28;20032;-50
2022/01/22 12:45:57;;;;;;;19.67;15.02;;;;;;;6.99;100.00;103362.28;5091690;28;20036;-54
2022/01/22 12:48:31;;;;;;;23.23;15.45;;;;;;;7.30;100.00;103411.84;5092116;28;20031;-51
2022/01/22 12:51:06;;;;;;;20.30;16.15;;;;;;;7.28;100.00;103414.44;5090577;28;20036;-48
2022/01/22 12:53:32;;;;;;;22.10;15.27;;;;;;;7.27;100.00;103419.63;5091852;28;20036;-49
2022/01/22 12:58:29;;;;;;;23.38;16.45;;;;;;;7.14;100.00;103394.03;5091697;28;20044;-52
2022/01/22 13:01:18;;;;;;;24.45;15.80;;;;;;;7.28;100.00;103409.22;5091717;28;20036;-52
2022/01/22 13:03:47;;;;;;;23.20;16.38;;;;;;;7.31;100.00;103411.91;5090931;28;20500;-51
2022/01/22 13:06:13;;;;;;;27.95;17.80;;;;;;;7.29;100.00;103407.47;5095424;28;20032;-51
2022/01/22 13:08:40;;;;;;;19.05;16.67;;;;;;;6.96;100.00;103356.97;5095427;28;20036;-47